Time;durP1;ratioP1;P1;durP2;ratioP2;P2;SDS_P1;SDS_P2;PMS_P1;PMS_P2;Temp;Humidity;BMP_temperature;BMP_pressure;BME280_temperature;BME280_humidity;BME280_pressure;Samples;Min_cycle;Max_cycle;Signal;HPM_P1;HPM_P2
2021/03/06 00:01:52;;;;;;;12.90;11.25;;;;;;;;;;5091901;28;20660;-45
2021/03/06 00:04:17;;;;;;;13.32;9.23;;;;;;;;;;5091484;28;20034;-45
2021/03/06 00:06:42;;;;;;;12.40;10.65;;;;;;;;;;5091279;28;20461;-45
2021/03/06 00:09:08;;;;;;;14.30;12.95;;;;;;;;;;5091193;28;20059;-46
2021/03/06 00:11:33;;;;;;;18.92;15.57;;;;;;;;;;5091440;28;20031;-48
2021/03/06 00:13:58;;;;;;;17.05;13.55;;;;;;;;;;5091659;28;20467;-47
2021/03/06 00:16:24;;;;;;;12.68;9.60;;;;;;;;;;5091204;28;20064;-45
2021/03/06 00:18:49;;;;;;;17.48;11.43;;;;;;;;;;5090898;28;20054;-44
2021/03/06 00:21:14;;;;;;;14.52;11.48;;;;;;;;;;5090994;28;20103;-43
2021/03/06 00:23:39;;;;;;;14.35;11.20;;;;;;;;;;5091320;28;20035;-44
2021/03/06 00:26:05;;;;;;;18.73;9.85;;;;;;;;;;5086150;28;20044;-46
2021/03/06 00:28:30;;;;;;;17.08;11.45;;;;;;;;;;5090808;28;20028;-50
2021/03/06 00:30:55;;;;;;;19.35;11.27;;;;;;;;;;5090649;28;20028;-46
2021/03/06 00:33:21;;;;;;;26.45;16.23;;;;;;;;;;5090786;28;20081;-50
2021/03/06 00:35:46;;;;;;;24.67;20.08;;;;;;;;;;5090932;28;20558;-48
2021/03/06 00:38:11;;;;;;;27.15;20.52;;;;;;;;;;5089599;28;20719;-49
2021/03/06 00:40:37;;;;;;;31.80;20.35;;;;;;;;;;5090986;28;20095;-47
2021/03/06 00:43:03;;;;;;;30.65;16.33;;;;;;;;;;5090393;28;20024;-50
2021/03/06 00:45:28;;;;;;;27.73;20.90;;;;;;;;;;5090736;28;20031;-47
2021/03/06 00:47:53;;;;;;;29.30;16.85;;;;;;;;;;5090298;28;20016;-48
2021/03/06 00:50:23;;;;;;;27.23;13.07;;;;;;;;;;5091047;28;20043;-51
2021/03/06 00:52:49;;;;;;;23.15;16.08;;;;;;;;;;5090461;28;20032;-51
2021/03/06 00:55:15;;;;;;;26.70;15.35;;;;;;;;;;5090911;28;20032;-49
2021/03/06 00:57:40;;;;;;;44.92;18.40;;;;;;;;;;5091062;28;20028;-52
2021/03/06 01:00:05;;;;;;;18.48;15.60;;;;;;;;;;5090829;28;20540;-49
2021/03/06 01:02:31;;;;;;;19.83;12.45;;;;;;;;;;5090762;28;20035;-50
2021/03/06 01:04:56;;;;;;;14.52;11.80;;;;;;;;;;5090764;28;20036;-48
2021/03/06 01:07:22;;;;;;;14.40;12.82;;;;;;;;;;5089015;28;20032;-48
2021/03/06 01:09:47;;;;;;;25.52;13.35;;;;;;;;;;5090567;28;20028;-46
2021/03/06 01:12:12;;;;;;;16.67;10.60;;;;;;;;;;5090458;28;20111;-49
2021/03/06 01:14:37;;;;;;;17.13;11.45;;;;;;;;;;5090789;28;20022;-47
2021/03/06 01:17:03;;;;;;;12.80;10.85;;;;;;;;;;5090127;28;20042;-48
2021/03/06 01:19:28;;;;;;;11.80;9.57;;;;;;;;;;5089687;28;20465;-48
2021/03/06 01:21:53;;;;;;;12.32;10.00;;;;;;;;;;5090360;28;20020;-45
2021/03/06 01:24:19;;;;;;;17.73;10.68;;;;;;;;;;5090257;28;20035;-47
2021/03/06 01:26:44;;;;;;;19.80;11.20;;;;;;;;;;5089644;28;20102;-43
2021/03/06 01:29:09;;;;;;;13.95;10.90;;;;;;;;;;5089667;28;20419;-46
2021/03/06 01:31:34;;;;;;;16.92;12.32;;;;;;;;;;5089375;28;20111;-45
2021/03/06 01:34:00;;;;;;;24.83;11.57;;;;;;;;;;5089782;28;20111;-55
2021/03/06 01:36:25;;;;;;;23.48;14.18;;;;;;;;;;5090050;28;20024;-50
2021/03/06 01:38:50;;;;;;;20.20;15.98;;;;;;;;;;5089381;28;20562;-48
2021/03/06 01:41:16;;;;;;;19.80;13.13;;;;;;;;;;5089962;28;20028;-45
2021/03/06 01:43:41;;;;;;;23.08;14.30;;;;;;;;;;5090163;28;20032;-44
2021/03/06 01:46:06;;;;;;;17.88;11.45;;;;;;;;;;5088975;28;20035;-45
2021/03/06 01:48:31;;;;;;;24.52;13.25;;;;;;;;;;5089820;28;20063;-47
2021/03/06 01:50:57;;;;;;;17.52;15.45;;;;;;;;;;5090178;28;20062;-48
2021/03/06 01:53:23;;;;;;;21.48;15.27;;;;;;;;;;5089516;28;20028;-47
2021/03/06 01:55:48;;;;;;;18.98;16.48;;;;;;;;;;5089705;28;20456;-48
2021/03/06 01:58:14;;;;;;;20.98;17.40;;;;;;;;;;5089406;28;20032;-44
2021/03/06 02:00:40;;;;;;;28.73;21.08;;;;;;;;;;5089886;28;20036;-43
2021/03/06 02:03:05;;;;;;;22.42;19.30;;;;;;;;;;5089843;28;20423;-44
2021/03/06 02:05:31;;;;;;;18.05;16.15;;;;;;;;;;5089873;28;20059;-48
2021/03/06 02:07:56;;;;;;;19.52;17.55;;;;;;;;;;5089831;28;20433;-48
2021/03/06 02:10:26;;;;;;;18.00;15.18;;;;;;;;;;5090036;28;20074;-43
2021/03/06 02:12:54;;;;;;;21.40;15.68;;;;;;;;;;5089901;28;20034;-47
2021/03/06 02:15:38;;;;;;;17.55;14.63;;;;;;;;;;5090071;28;20032;-45
2021/03/06 02:18:06;;;;;;;20.60;17.98;;;;;;;;;;5089414;28;20028;-53
2021/03/06 02:20:35;;;;;;;25.42;16.63;;;;;;;;;;5090052;28;20052;-46
2021/03/06 02:23:00;;;;;;;17.75;14.13;;;;;;;;;;5089642;28;20809;-51
2021/03/06 02:25:34;;;;;;;23.10;17.27;;;;;;;;;;5089726;28;20032;-44
2021/03/06 02:28:05;;;;;;;40.05;18.58;;;;;;;;;;5089283;28;20365;-47
2021/03/06 02:30:31;;;;;;;20.25;17.88;;;;;;;;;;5089015;28;20036;-49
2021/03/06 02:32:59;;;;;;;26.10;18.55;;;;;;;;;;5089364;28;20048;-44
2021/03/06 02:35:27;;;;;;;19.42;17.48;;;;;;;;;;5088959;28;20020;-46
2021/03/06 02:37:55;;;;;;;23.90;16.20;;;;;;;;;;5089566;28;20024;-52
2021/03/06 02:40:21;;;;;;;21.70;15.05;;;;;;;;;;5089806;28;20088;-49
2021/03/06 02:42:46;;;;;;;18.30;14.63;;;;;;;;;;5089244;28;20032;-48
2021/03/06 02:45:12;;;;;;;19.38;17.27;;;;;;;;;;5092539;28;20024;-47
2021/03/06 02:47:37;;;;;;;21.30;15.23;;;;;;;;;;5093336;28;20147;-44
2021/03/06 02:50:04;;;;;;;23.40;13.52;;;;;;;;;;5093210;28;20467;-46
2021/03/06 02:52:30;;;;;;;16.98;12.43;;;;;;;;;;5093243;28;20032;-50
2021/03/06 02:54:55;;;;;;;22.55;12.88;;;;;;;;;;5093284;28;20024;-46
2021/03/06 02:57:43;;;;;;;15.88;14.23;;;;;;;;;;5092907;28;20411;-46
2021/03/06 03:00:12;;;;;;;15.85;12.82;;;;;;;;;;5054122;28;20127;-47
2021/03/06 03:02:43;;;;;;;13.30;10.43;;;;;;;;;;5093175;28;20028;-43
2021/03/06 03:05:17;;;;;;;12.32;10.68;;;;;;;;;;5093191;28;20031;-48
2021/03/06 03:07:48;;;;;;;18.83;10.88;;;;;;;;;;5092503;28;20097;-53
2021/03/06 03:10:14;;;;;;;20.52;11.63;;;;;;;;;;5093083;28;20028;-49
2021/03/06 03:12:44;;;;;;;19.63;10.50;;;;;;;;;;5092761;28;20038;-43
2021/03/06 03:15:15;;;;;;;23.55;11.55;;;;;;;;;;5092589;28;20028;-44
2021/03/06 03:17:45;;;;;;;18.15;9.80;;;;;;;;;;5092288;28;20039;-47
2021/03/06 03:20:18;;;;;;;13.02;10.18;;;;;;;;;;5092385;28;20477;-48
2021/03/06 03:22:46;;;;;;;22.45;13.02;;;;;;;;;;5092771;28;20083;-43
2021/03/06 03:25:12;;;;;;;25.23;10.82;;;;;;;;;;5092821;28;20044;-44
2021/03/06 03:27:38;;;;;;;18.77;9.73;;;;;;;;;;5092249;28;20727;-49
2021/03/06 03:30:07;;;;;;;15.55;10.65;;;;;;;;;;5092422;28;20540;-49
2021/03/06 03:32:33;;;;;;;11.80;10.60;;;;;;;;;;5092117;28;20039;-47
2021/03/06 03:34:59;;;;;;;12.52;9.88;;;;;;;;;;5092468;28;20034;-44
2021/03/06 03:37:24;;;;;;;13.48;10.25;;;;;;;;;;5092174;28;20040;-45
2021/03/06 03:39:49;;;;;;;15.13;10.40;;;;;;;;;;5092153;28;20139;-49
2021/03/06 03:42:15;;;;;;;9.95;8.18;;;;;;;;;;5091968;28;20393;-49
2021/03/06 03:44:41;;;;;;;12.20;10.52;;;;;;;;;;5092159;28;20090;-46
2021/03/06 03:47:07;;;;;;;19.85;10.82;;;;;;;;;;5090846;28;20077;-44
2021/03/06 03:49:32;;;;;;;18.23;10.73;;;;;;;;;;5091599;28;20079;-45
2021/03/06 03:51:58;;;;;;;12.90;10.82;;;;;;;;;;5091986;28;20101;-46
2021/03/06 03:54:24;;;;;;;15.60;11.23;;;;;;;;;;5091827;28;20107;-45
2021/03/06 03:56:49;;;;;;;11.23;9.32;;;;;;;;;;5090844;28;20032;-44
2021/03/06 03:59:14;;;;;;;11.43;8.82;;;;;;;;;;5091479;28;20046;-49
2021/03/06 04:01:44;;;;;;;11.27;10.15;;;;;;;;;;5091728;28;20067;-43
2021/03/06 04:04:22;;;;;;;19.15;11.13;;;;;;;;;;5091779;28;20365;-46
2021/03/06 04:06:47;;;;;;;12.05;9.70;;;;;;;;;;5091424;28;20032;-48
2021/03/06 04:09:13;;;;;;;13.43;10.50;;;;;;;;;;5091264;28;20465;-47
2021/03/06 04:11:38;;;;;;;11.68;8.00;;;;;;;;;;5091892;28;20081;-49
2021/03/06 04:14:03;;;;;;;10.55;9.13;;;;;;;;;;5091299;28;20023;-46
2021/03/06 04:16:28;;;;;;;16.45;11.15;;;;;;;;;;5091099;28;20040;-44
2021/03/06 04:18:54;;;;;;;20.05;14.25;;;;;;;;;;5090879;28;20066;-44
2021/03/06 04:21:19;;;;;;;13.02;11.20;;;;;;;;;;5091434;28;20573;-44
2021/03/06 04:23:44;;;;;;;13.60;12.20;;;;;;;;;;5090213;28;20053;-44
2021/03/06 04:26:10;;;;;;;19.35;12.32;;;;;;;;;;5091177;28;20062;-48
2021/03/06 04:28:35;;;;;;;15.60;9.68;;;;;;;;;;5091087;28;20074;-43
2021/03/06 04:31:00;;;;;;;18.98;8.93;;;;;;;;;;5090762;28;20105;-51
2021/03/06 04:33:26;;;;;;;13.15;10.05;;;;;;;;;;5091544;28;20111;-43
2021/03/06 04:35:51;;;;;;;20.65;10.23;;;;;;;;;;5085853;28;20122;-46
2021/03/06 04:38:16;;;;;;;18.80;9.32;;;;;;;;;;5082418;28;20404;-49
2021/03/06 04:40:41;;;;;;;17.42;10.25;;;;;;;;;;5091582;28;20028;-46
2021/03/06 04:43:07;;;;;;;12.23;10.90;;;;;;;;;;5084796;28;20028;-45
2021/03/06 04:45:32;;;;;;;19.70;10.65;;;;;;;;;;5090688;28;20031;-46
2021/03/06 04:47:58;;;;;;;14.65;10.30;;;;;;;;;;5091155;28;20070;-43
2021/03/06 04:50:23;;;;;;;13.15;10.30;;;;;;;;;;5090402;28;20024;-47
2021/03/06 04:52:48;;;;;;;18.00;11.75;;;;;;;;;;5090658;28;20036;-49
2021/03/06 04:55:13;;;;;;;11.05;9.90;;;;;;;;;;5090911;28;20020;-46
2021/03/06 04:57:39;;;;;;;17.52;11.18;;;;;;;;;;5090408;28;20044;-45
2021/03/06 05:00:05;;;;;;;16.08;9.38;;;;;;;;;;5090726;28;20016;-48
2021/03/06 05:02:31;;;;;;;13.45;10.63;;;;;;;;;;5091036;28;20070;-47
2021/03/06 05:04:58;;;;;;;19.25;11.25;;;;;;;;;;5090944;28;20057;-49
2021/03/06 05:07:23;;;;;;;27.38;13.15;;;;;;;;;;5090368;28;20090;-44
2021/03/06 05:09:49;;;;;;;30.45;14.27;;;;;;;;;;5090794;28;20734;-45
2021/03/06 05:12:14;;;;;;;26.30;13.85;;;;;;;;;;5090230;28;20032;-45
2021/03/06 05:14:39;;;;;;;16.65;10.80;;;;;;;;;;5090637;28;20024;-47
2021/03/06 05:17:04;;;;;;;24.05;11.57;;;;;;;;;;5090091;28;20044;-46
2021/03/06 05:19:30;;;;;;;16.83;11.80;;;;;;;;;;5090120;28;20052;-48
2021/03/06 05:21:55;;;;;;;16.35;11.20;;;;;;;;;;5090067;28;20448;-50
2021/03/06 05:24:21;;;;;;;19.17;10.10;;;;;;;;;;5089234;28;20038;-51
2021/03/06 05:26:47;;;;;;;14.55;11.80;;;;;;;;;;5090118;28;20036;-59
2021/03/06 05:29:13;;;;;;;20.90;12.27;;;;;;;;;;5090185;28;20070;-48
2021/03/06 05:31:38;;;;;;;15.93;11.10;;;;;;;;;;5090058;28;20487;-48
2021/03/06 05:34:03;;;;;;;16.08;12.00;;;;;;;;;;5089096;28;20024;-45
2021/03/06 05:36:28;;;;;;;20.23;11.57;;;;;;;;;;5090178;28;20039;-47
2021/03/06 05:38:54;;;;;;;14.02;12.57;;;;;;;;;;5089938;28;20103;-44
2021/03/06 05:41:19;;;;;;;12.35;10.00;;;;;;;;;;5089638;28;20036;-43
2021/03/06 05:43:45;;;;;;;11.45;8.80;;;;;;;;;;5089985;28;20081;-48
2021/03/06 05:46:10;;;;;;;12.63;11.32;;;;;;;;;;5088856;28;20461;-46
2021/03/06 05:48:35;;;;;;;12.45;10.15;;;;;;;;;;5089699;28;20150;-47
2021/03/06 05:51:01;;;;;;;26.27;13.80;;;;;;;;;;5089874;28;20054;-49
2021/03/06 05:53:29;;;;;;;23.58;13.18;;;;;;;;;;5090060;28;20028;-45
2021/03/06 05:55:56;;;;;;;20.88;12.32;;;;;;;;;;5089919;28;20764;-43
2021/03/06 05:58:21;;;;;;;22.63;11.85;;;;;;;;;;5089057;28;20032;-46
2021/03/06 06:00:47;;;;;;;14.90;11.93;;;;;;;;;;5089887;28;20033;-49
2021/03/06 06:03:14;;;;;;;14.02;11.18;;;;;;;;;;5089480;28;20043;-45
2021/03/06 06:05:40;;;;;;;19.60;10.80;;;;;;;;;;5089529;28;20034;-47
2021/03/06 06:08:05;;;;;;;16.35;10.30;;;;;;;;;;5089409;28;20376;-44
2021/03/06 06:10:31;;;;;;;16.98;13.10;;;;;;;;;;5089771;28;20028;-47
2021/03/06 06:12:57;;;;;;;25.08;13.25;;;;;;;;;;5089820;28;20468;-46
2021/03/06 06:15:22;;;;;;;13.60;12.27;;;;;;;;;;5089204;28;20426;-44
2021/03/06 06:17:48;;;;;;;12.95;11.63;;;;;;;;;;5089686;28;20024;-46
2021/03/06 06:20:14;;;;;;;16.83;11.07;;;;;;;;;;5092919;28;20130;-44
2021/03/06 06:22:39;;;;;;;14.20;12.27;;;;;;;;;;5093641;28;20124;-45
2021/03/06 06:25:04;;;;;;;13.20;11.77;;;;;;;;;;5093233;28;20147;-45
2021/03/06 06:27:31;;;;;;;15.13;12.95;;;;;;;;;;5093621;28;20038;-48
2021/03/06 06:29:57;;;;;;;14.50;12.20;;;;;;;;;;5093438;28;20024;-44
2021/03/06 06:32:24;;;;;;;13.10;10.82;;;;;;;;;;5093553;28;20063;-45
2021/03/06 06:35:03;;;;;;;13.75;11.68;;;;;;;;;;5093744;28;20073;-44
2021/03/06 06:37:29;;;;;;;18.58;10.93;;;;;;;;;;5093342;28;20466;-45
2021/03/06 06:39:55;;;;;;;18.25;11.40;;;;;;;;;;5093158;28;20113;-45
2021/03/06 06:42:28;;;;;;;15.43;13.75;;;;;;;;;;5091936;28;20457;-47
2021/03/06 06:44:54;;;;;;;15.30;12.23;;;;;;;;;;5092641;28;20020;-44
2021/03/06 06:47:19;;;;;;;15.18;13.38;;;;;;;;;;5093138;28;20028;-50
2021/03/06 06:49:46;;;;;;;15.43;12.75;;;;;;;;;;5092954;28;20070;-49
2021/03/06 06:52:12;;;;;;;23.00;14.02;;;;;;;;;;5093014;28;20030;-49
2021/03/06 06:54:37;;;;;;;17.05;12.70;;;;;;;;;;5092586;28;20028;-45
2021/03/06 06:57:08;;;;;;;21.65;14.15;;;;;;;;;;5092515;28;20086;-46
2021/03/06 06:59:34;;;;;;;15.98;12.93;;;;;;;;;;5092649;28;20486;-48
2021/03/06 07:02:03;;;;;;;17.25;11.88;;;;;;;;;;5092991;28;20036;-47
2021/03/06 07:04:41;;;;;;;15.80;11.23;;;;;;;;;;5092432;28;20039;-50
2021/03/06 07:07:08;;;;;;;14.98;11.90;;;;;;;;;;5091244;28;20445;-46
2021/03/06 07:09:34;;;;;;;26.23;13.63;;;;;;;;;;5092795;28;20110;-50
2021/03/06 07:12:14;;;;;;;16.83;10.93;;;;;;;;;;5092769;28;20111;-44
2021/03/06 07:14:40;;;;;;;14.23;12.75;;;;;;;;;;5092487;28;20054;-45
2021/03/06 07:17:05;;;;;;;12.48;11.20;;;;;;;;;;5092023;28;20036;-48
2021/03/06 07:19:31;;;;;;;18.10;14.88;;;;;;;;;;5092245;28;20062;-49
2021/03/06 07:21:58;;;;;;;40.42;22.85;;;;;;;;;;5092019;28;20465;-46
2021/03/06 07:24:25;;;;;;;28.17;22.90;;;;;;;;;;5091877;28;20099;-45
2021/03/06 07:26:51;;;;;;;27.30;24.30;;;;;;;;;;5092113;28;20038;-45
2021/03/06 07:29:17;;;;;;;68.80;61.85;;;;;;;;;;5090301;28;20047;-46
2021/03/06 07:31:43;;;;;;;49.00;40.85;;;;;;;;;;5090864;28;20028;-51
2021/03/06 07:34:09;;;;;;;42.80;38.33;;;;;;;;;;5091897;28;20524;-47
2021/03/06 07:36:36;;;;;;;29.10;26.25;;;;;;;;;;5087749;28;20032;-44
2021/03/06 07:39:02;;;;;;;47.67;36.97;;;;;;;;;;5092026;28;20132;-52
2021/03/06 07:41:32;;;;;;;50.88;19.65;;;;;;;;;;5092364;28;20028;-47
2021/03/06 07:43:57;;;;;;;22.15;17.17;;;;;;;;;;5091438;28;20024;-46
2021/03/06 07:46:23;;;;;;;21.63;18.20;;;;;;;;;;5091791;28;20036;-46
2021/03/06 07:48:51;;;;;;;19.30;17.50;;;;;;;;;;5091934;28;20066;-45
2021/03/06 07:51:17;;;;;;;25.05;20.65;;;;;;;;;;5090290;28;20044;-46
2021/03/06 07:53:46;;;;;;;36.95;20.35;;;;;;;;;;5091758;28;20085;-52
2021/03/06 07:56:12;;;;;;;21.73;18.92;;;;;;;;;;5089683;28;20033;-46
2021/03/06 07:58:47;;;;;;;22.13;17.20;;;;;;;;;;5091543;28;20084;-46
2021/03/06 08:01:26;;;;;;;19.38;16.77;;;;;;;;;;5091780;28;20516;-45
2021/03/06 08:03:51;;;;;;;20.08;16.83;;;;;;;;;;5091220;28;20028;-45
2021/03/06 08:06:17;;;;;;;19.63;17.55;;;;;;;;;;5091495;28;20028;-48
2021/03/06 08:08:43;;;;;;;26.67;20.15;;;;;;;;;;5091347;28;20028;-54
2021/03/06 08:11:18;;;;;;;28.83;23.23;;;;;;;;;;5091263;28;20035;-48
2021/03/06 08:13:47;;;;;;;35.30;22.00;;;;;;;;;;5091705;28;20456;-50
2021/03/06 08:16:24;;;;;;;29.08;20.98;;;;;;;;;;5091365;28;20070;-45
2021/03/06 08:18:51;;;;;;;34.75;25.73;;;;;;;;;;5091228;28;20040;-46
2021/03/06 08:21:26;;;;;;;38.42;27.63;;;;;;;;;;5091098;28;20446;-49
2021/03/06 08:24:11;;;;;;;41.20;30.10;;;;;;;;;;5091174;28;20039;-49
2021/03/06 08:26:36;;;;;;;37.78;26.27;;;;;;;;;;5090896;28;20071;-51
2021/03/06 08:29:37;;;;;;;25.63;22.48;;;;;;;;;;5090898;28;20064;-52
2021/03/06 08:32:26;;;;;;;28.85;20.67;;;;;;;;;;5008399;28;20076;-51
2021/03/06 08:34:52;;;;;;;34.90;26.15;;;;;;;;;;5078106;28;20031;-43
2021/03/06 08:37:20;;;;;;;38.15;25.92;;;;;;;;;;5090229;28;20093;-48
2021/03/06 08:39:58;;;;;;;36.53;28.73;;;;;;;;;;5090919;28;20024;-51
2021/03/06 08:42:26;;;;;;;39.45;28.27;;;;;;;;;;5090592;28;20028;-46
2021/03/06 08:44:51;;;;;;;34.33;28.90;;;;;;;;;;5090984;28;20111;-48
2021/03/06 08:47:22;;;;;;;35.53;26.05;;;;;;;;;;5085816;28;20120;-44
2021/03/06 08:49:48;;;;;;;41.58;28.67;;;;;;;;;;5090705;28;20032;-46
2021/03/06 08:52:13;;;;;;;56.03;35.50;;;;;;;;;;5090274;28;20027;-44
2021/03/06 08:54:40;;;;;;;59.58;41.72;;;;;;;;;;5086970;28;20051;-48
2021/03/06 08:57:05;;;;;;;54.03;46.30;;;;;;;;;;5090200;28;20066;-53
2021/03/06 08:59:38;;;;;;;58.88;40.55;;;;;;;;;;5090606;28;20064;-45
2021/03/06 09:02:13;;;;;;;40.35;35.42;;;;;;;;;;5090410;28;20545;-43
2021/03/06 09:04:39;;;;;;;38.13;33.97;;;;;;;;;;5090872;28;20083;-44
2021/03/06 09:07:04;;;;;;;46.88;36.80;;;;;;;;;;5090249;28;20036;-51
2021/03/06 09:09:29;;;;;;;41.17;35.78;;;;;;;;;;5090547;28;20491;-45
2021/03/06 09:11:58;;;;;;;31.55;28.30;;;;;;;;;;5088975;28;20087;-44
2021/03/06 09:14:24;;;;;;;42.38;31.27;;;;;;;;;;5090417;28;20023;-46
2021/03/06 09:16:50;;;;;;;50.33;36.70;;;;;;;;;;5090420;28;20043;-46
2021/03/06 09:19:27;;;;;;;37.75;33.58;;;;;;;;;;5089754;28;20052;-46
2021/03/06 09:21:56;;;;;;;35.28;21.92;;;;;;;;;;5090327;28;20385;-45
2021/03/06 09:24:21;;;;;;;28.33;23.80;;;;;;;;;;5090333;28;20093;-47
2021/03/06 09:26:50;;;;;;;21.38;19.13;;;;;;;;;;5089895;28;20157;-46
2021/03/06 09:29:15;;;;;;;21.50;17.65;;;;;;;;;;5089865;28;20036;-48
2021/03/06 09:31:40;;;;;;;18.83;15.45;;;;;;;;;;5090384;28;20385;-43
2021/03/06 09:34:06;;;;;;;19.75;13.02;;;;;;;;;;5089253;28;20099;-46
2021/03/06 09:36:31;;;;;;;16.42;12.00;;;;;;;;;;5090285;28;20039;-45
2021/03/06 09:38:58;;;;;;;12.98;11.32;;;;;;;;;;5089631;28;20457;-44
2021/03/06 09:41:34;;;;;;;12.18;8.75;;;;;;;;;;5089621;28;20546;-45
2021/03/06 09:44:00;;;;;;;22.13;10.57;;;;;;;;;;5089844;28;20048;-45
2021/03/06 09:46:27;;;;;;;14.07;12.40;;;;;;;;;;5089758;28;20503;-43
2021/03/06 09:48:57;;;;;;;19.17;11.68;;;;;;;;;;5083965;28;20040;-46
2021/03/06 09:51:23;;;;;;;15.25;12.27;;;;;;;;;;5089728;28;20077;-46
2021/03/06 09:53:58;;;;;;;24.88;13.80;;;;;;;;;;5089338;28;20020;-47
2021/03/06 09:56:24;;;;;;;20.05;16.45;;;;;;;;;;5089677;28;20425;-45
2021/03/06 09:58:56;;;;;;;21.75;15.93;;;;;;;;;;5089969;28;20090;-43
2021/03/06 10:01:22;;;;;;;21.50;16.33;;;;;;;;;;5089715;28;20107;-49
2021/03/06 10:03:48;;;;;;;27.67;13.50;;;;;;;;;;5089862;28;20119;-45
2021/03/06 10:06:15;;;;;;;21.08;11.40;;;;;;;;;;5089885;28;20120;-45
2021/03/06 10:09:07;;;;;;;32.88;9.90;;;;;;;;;;5089744;28;20036;-44
2021/03/06 10:11:33;;;;;;;13.82;11.63;;;;;;;;;;5085524;28;20085;-47
2021/03/06 10:13:59;;;;;;;13.65;10.68;;;;;;;;;;5088903;28;20040;-51
2021/03/06 10:16:24;;;;;;;16.95;13.70;;;;;;;;;;5089862;28;20058;-44
2021/03/06 10:18:50;;;;;;;16.33;11.45;;;;;;;;;;5089330;28;20064;-47
2021/03/06 10:21:18;;;;;;;18.88;12.15;;;;;;;;;;5088405;28;20031;-45
2021/03/06 10:23:43;;;;;;;10.25;9.23;;;;;;;;;;5089712;28;20024;-54
2021/03/06 10:26:15;;;;;;;14.95;12.30;;;;;;;;;;5088249;28;20035;-45
2021/03/06 10:28:41;;;;;;;9.13;7.53;;;;;;;;;;5089624;28;20043;-46
2021/03/06 10:31:23;;;;;;;11.02;9.75;;;;;;;;;;5089133;28;20020;-45
2021/03/06 10:33:49;;;;;;;14.45;9.70;;;;;;;;;;5089750;28;20050;-48
2021/03/06 10:36:16;;;;;;;18.40;10.82;;;;;;;;;;5089702;28;20449;-45
2021/03/06 10:38:41;;;;;;;14.07;7.57;;;;;;;;;;5088924;28;20028;-44
2021/03/06 10:41:14;;;;;;;9.60;7.45;;;;;;;;;;5089337;28;20472;-46
2021/03/06 10:43:43;;;;;;;12.40;10.23;;;;;;;;;;5085667;28;20036;-44
2021/03/06 10:46:19;;;;;;;17.02;9.77;;;;;;;;;;5089143;28;20016;-44
2021/03/06 10:48:50;;;;;;;13.13;10.35;;;;;;;;;;5089076;28;20047;-43
2021/03/06 10:51:15;;;;;;;21.80;10.35;;;;;;;;;;5089392;28;20056;-52
2021/03/06 10:53:40;;;;;;;11.35;8.77;;;;;;;;;;5089380;28;20436;-44
2021/03/06 10:56:17;;;;;;;15.63;10.77;;;;;;;;;;5089285;28;20032;-48
2021/03/06 10:58:45;;;;;;;15.43;11.90;;;;;;;;;;5088938;28;20085;-52
2021/03/06 11:01:12;;;;;;;11.85;10.18;;;;;;;;;;5088786;28;20111;-49
2021/03/06 11:03:40;;;;;;;27.45;9.68;;;;;;;;;;5089093;28;20020;-45
2021/03/06 11:06:06;;;;;;;18.60;11.75;;;;;;;;;;5091859;28;20123;-47
2021/03/06 11:08:31;;;;;;;18.15;9.05;;;;;;;;;;5092317;28;20036;-47
2021/03/06 11:10:56;;;;;;;15.80;9.85;;;;;;;;;;5092084;28;20043;-44
2021/03/06 11:13:22;;;;;;;13.93;11.82;;;;;;;;;;5091969;28;20455;-43
2021/03/06 11:15:51;;;;;;;15.43;12.23;;;;;;;;;;5092298;28;20024;-44
2021/03/06 11:18:17;;;;;;;17.77;12.82;;;;;;;;;;5091898;28;20111;-45
2021/03/06 11:20:42;;;;;;;14.88;11.30;;;;;;;;;;5092455;28;20471;-49
2021/03/06 11:23:08;;;;;;;15.98;8.77;;;;;;;;;;5091656;28;20051;-47
2021/03/06 11:25:33;;;;;;;11.30;10.18;;;;;;;;;;5091858;28;20020;-46
2021/03/06 11:28:05;;;;;;;17.60;10.95;;;;;;;;;;5092534;28;20400;-43
2021/03/06 11:30:35;;;;;;;21.88;11.98;;;;;;;;;;5092466;28;20120;-46
2021/03/06 11:33:01;;;;;;;21.10;12.63;;;;;;;;;;5091703;28;20023;-48
2021/03/06 11:35:27;;;;;;;23.35;11.95;;;;;;;;;;5091718;28;20026;-47
2021/03/06 11:37:52;;;;;;;18.35;11.98;;;;;;;;;;5091677;28;20380;-45
2021/03/06 11:40:19;;;;;;;11.38;9.70;;;;;;;;;;5091325;28;20020;-46
2021/03/06 11:42:44;;;;;;;13.85;10.25;;;;;;;;;;5091258;28;20024;-44
2021/03/06 11:45:10;;;;;;;12.40;7.57;;;;;;;;;;5091587;28;20028;-53
2021/03/06 11:47:36;;;;;;;10.82;8.10;;;;;;;;;;5090892;28;20031;-45
2021/03/06 11:50:03;;;;;;;13.55;8.95;;;;;;;;;;5091659;28;20672;-55
2021/03/06 11:52:28;;;;;;;25.15;10.23;;;;;;;;;;5091531;28;20024;-48
2021/03/06 11:54:54;;;;;;;10.73;6.20;;;;;;;;;;5091989;28;20027;-44
2021/03/06 11:57:19;;;;;;;8.93;6.43;;;;;;;;;;5091128;28;20436;-48
2021/03/06 11:59:44;;;;;;;15.27;7.65;;;;;;;;;;5091460;28;20024;-49
2021/03/06 12:02:10;;;;;;;7.60;6.43;;;;;;;;;;5091436;28;20031;-51
2021/03/06 12:04:35;;;;;;;9.63;7.55;;;;;;;;;;5091547;28;20385;-49
2021/03/06 12:07:00;;;;;;;12.55;5.50;;;;;;;;;;5091010;28;20076;-56
2021/03/06 12:09:25;;;;;;;6.10;4.85;;;;;;;;;;5090609;28;20032;-45
2021/03/06 12:11:51;;;;;;;8.82;6.25;;;;;;;;;;5090995;28;20134;-48
2021/03/06 12:14:16;;;;;;;13.20;7.90;;;;;;;;;;5089610;28;20075;-46
2021/03/06 12:16:41;;;;;;;18.45;9.82;;;;;;;;;;5090079;28;20028;-46
2021/03/06 12:19:07;;;;;;;7.93;5.70;;;;;;;;;;5090349;28;20614;-48
2021/03/06 12:21:32;;;;;;;10.77;6.72;;;;;;;;;;5090904;28;20020;-53
2021/03/06 12:23:57;;;;;;;9.07;5.00;;;;;;;;;;5090829;28;20063;-45
2021/03/06 12:26:23;;;;;;;7.20;5.18;;;;;;;;;;5091270;28;20028;-49
2021/03/06 12:28:48;;;;;;;5.57;4.80;;;;;;;;;;5090767;28;20031;-49
2021/03/06 12:31:13;;;;;;;9.88;5.38;;;;;;;;;;5090906;28;20422;-47
2021/03/06 12:33:39;;;;;;;6.95;5.15;;;;;;;;;;5089159;28;20032;-43
2021/03/06 12:36:05;;;;;;;20.00;5.97;;;;;;;;;;5090032;28;20029;-51
2021/03/06 12:38:30;;;;;;;5.80;4.60;;;;;;;;;;5090471;28;20036;-52
2021/03/06 12:40:55;;;;;;;8.75;4.30;;;;;;;;;;5090441;28;20103;-49
2021/03/06 12:43:20;;;;;;;6.07;4.45;;;;;;;;;;5090483;28;20036;-46
2021/03/06 12:45:46;;;;;;;11.55;5.32;;;;;;;;;;5090554;28;20020;-56
2021/03/06 12:48:12;;;;;;;6.97;4.63;;;;;;;;;;5090549;28;20099;-44
2021/03/06 12:50:37;;;;;;;4.88;3.65;;;;;;;;;;5090386;28;20020;-45
2021/03/06 12:53:02;;;;;;;13.95;6.97;;;;;;;;;;5090024;28;20024;-49
2021/03/06 12:55:27;;;;;;;8.32;4.72;;;;;;;;;;5090355;28;20028;-46
2021/03/06 12:57:53;;;;;;;6.10;4.95;;;;;;;;;;5090282;28;20028;-52
2021/03/06 13:00:18;;;;;;;6.07;4.82;;;;;;;;;;5090452;28;20036;-48
2021/03/06 13:02:44;;;;;;;13.93;6.57;;;;;;;;;;5089677;28;20439;-49
2021/03/06 13:05:09;;;;;;;9.63;5.03;;;;;;;;;;5089790;28;20115;-46
2021/03/06 13:07:35;;;;;;;17.92;6.22;;;;;;;;;;5085564;28;20032;-48
2021/03/06 13:10:00;;;;;;;20.33;10.43;;;;;;;;;;5090077;28;20036;-46
2021/03/06 13:12:25;;;;;;;6.47;3.60;;;;;;;;;;5090114;28;20051;-49
2021/03/06 13:14:51;;;;;;;23.40;11.73;;;;;;;;;;5090164;28;20062;-46
2021/03/06 13:17:16;;;;;;;6.13;5.03;;;;;;;;;;5089860;28;20094;-46
2021/03/06 13:19:41;;;;;;;7.68;5.22;;;;;;;;;;5089611;28;20059;-51
2021/03/06 13:22:06;;;;;;;17.40;7.60;;;;;;;;;;5088306;28;20063;-45
2021/03/06 13:24:32;;;;;;;15.50;7.93;;;;;;;;;;5090023;28;20028;-47
2021/03/06 13:26:57;;;;;;;13.05;5.55;;;;;;;;;;5089457;28;20110;-46
2021/03/06 13:29:22;;;;;;;6.40;4.80;;;;;;;;;;5088748;28;20043;-46
2021/03/06 13:31:48;;;;;;;17.00;7.82;;;;;;;;;;5089427;28;20023;-49
2021/03/06 13:34:14;;;;;;;14.68;9.57;;;;;;;;;;5089625;28;20111;-46
2021/03/06 13:36:40;;;;;;;9.77;8.30;;;;;;;;;;5090033;28;20028;-47
2021/03/06 13:39:05;;;;;;;18.90;7.97;;;;;;;;;;5089449;28;20093;-50
2021/03/06 13:41:31;;;;;;;22.27;6.63;;;;;;;;;;5089745;28;20398;-49
2021/03/06 13:43:56;;;;;;;8.35;6.90;;;;;;;;;;5088932;28;20606;-43
2021/03/06 13:46:21;;;;;;;13.77;9.48;;;;;;;;;;5089453;28;20027;-43
2021/03/06 13:48:47;;;;;;;7.60;5.75;;;;;;;;;;5089007;28;20066;-46
2021/03/06 13:51:12;;;;;;;7.80;6.82;;;;;;;;;;5088009;28;20024;-48
2021/03/06 13:53:37;;;;;;;6.40;5.57;;;;;;;;;;5088926;28;20032;-43
2021/03/06 13:56:03;;;;;;;7.18;5.38;;;;;;;;;;5089152;28;20516;-49
2021/03/06 13:58:28;;;;;;;10.57;7.40;;;;;;;;;;5088803;28;20461;-51
2021/03/06 14:00:54;;;;;;;8.88;7.93;;;;;;;;;;5090022;28;20027;-46
2021/03/06 14:03:19;;;;;;;9.52;6.50;;;;;;;;;;5089771;28;20032;-45
2021/03/06 14:05:44;;;;;;;7.63;6.85;;;;;;;;;;5089375;28;20024;-48
2021/03/06 14:08:10;;;;;;;6.15;4.15;;;;;;;;;;5088978;28;20484;-51
2021/03/06 14:10:35;;;;;;;12.68;5.78;;;;;;;;;;5089546;28;20103;-46
2021/03/06 14:13:00;;;;;;;13.95;7.68;;;;;;;;;;5089063;28;20386;-49
2021/03/06 14:15:26;;;;;;;10.85;5.18;;;;;;;;;;5088587;28;20370;-50
2021/03/06 14:17:51;;;;;;;4.85;4.45;;;;;;;;;;5089238;28;20028;-45
2021/03/06 14:20:17;;;;;;;11.93;9.30;;;;;;;;;;5087555;28;20052;-45